createdAt,value
2022-12-17T00:02:40.447Z,46.22
2022-12-17T00:05:31.125Z,46.78
2022-12-17T00:08:22.420Z,47.83
2022-12-17T00:11:12.444Z,44.55
2022-12-17T00:14:02.039Z,46.97
2022-12-17T00:16:52.579Z,51.13
2022-12-17T00:19:43.978Z,46.58
2022-12-17T00:22:33.741Z,47.72
2022-12-17T00:25:23.795Z,43.42
2022-12-17T00:28:14.432Z,44.35
2022-12-17T00:31:04.476Z,43.42
2022-12-17T00:33:53.895Z,44.03
2022-12-17T00:36:43.895Z,44.20
2022-12-17T00:39:34.175Z,48.70
2022-12-17T00:42:24.490Z,45.58
2022-12-17T00:45:14.509Z,45.50
2022-12-17T00:48:04.858Z,47.20
2022-12-17T00:50:56.936Z,40.40
2022-12-17T00:53:47.996Z,38.50
2022-12-17T00:56:37.666Z,40.22
2022-12-17T00:59:28.320Z,39.38
2022-12-17T01:02:18.734Z,40.78
2022-12-17T01:05:09.508Z,41.40
2022-12-17T01:08:00.007Z,40.83
2022-12-17T01:10:49.995Z,36.97
2022-12-17T01:13:40.985Z,36.78
2022-12-17T01:16:34.003Z,37.38
2022-12-17T01:19:24.125Z,37.90
2022-12-17T01:22:14.539Z,38.65
2022-12-17T01:25:04.613Z,53.30
2022-12-17T01:27:55.220Z,39.47
2022-12-17T01:30:46.360Z,36.88
2022-12-17T01:33:37.557Z,34.30
2022-12-17T01:36:28.345Z,33.20
2022-12-17T01:39:18.993Z,34.42
2022-12-17T01:42:09.175Z,33.42
2022-12-17T01:45:17.579Z,30.35
2022-12-17T01:48:17.284Z,37.10
2022-12-17T01:51:16.267Z,28.95
2022-12-17T01:54:15.256Z,33.35
2022-12-17T01:57:06.612Z,35.90
2022-12-17T02:00:18.030Z,46.15
2022-12-17T02:03:08.714Z,32.47
2022-12-17T02:06:37.581Z,30.23
2022-12-17T02:09:48.605Z,51.47
2022-12-17T02:13:01.896Z,35.78
2022-12-17T02:16:02.006Z,39.83
2022-12-17T02:19:04.202Z,35.67
2022-12-17T02:21:56.879Z,30.70
2022-12-17T02:25:05.533Z,29.10
2022-12-17T02:27:57.169Z,25.20
2022-12-17T02:30:47.919Z,27.13
2022-12-17T02:33:39.302Z,32.75
2022-12-17T02:36:31.539Z,33.85
2022-12-17T02:39:21.719Z,30.02
2022-12-17T02:42:15.400Z,33.97
2022-12-17T02:45:06.419Z,33.78
2022-12-17T02:47:57.568Z,30.45
2022-12-17T02:50:47.851Z,35.75
2022-12-17T02:53:38.473Z,34.72
2022-12-17T02:56:28.792Z,32.65
2022-12-17T02:59:19.143Z,28.13
2022-12-17T03:02:12.934Z,33.38
2022-12-17T03:05:21.196Z,30.67
2022-12-17T03:08:13.358Z,32.63
2022-12-17T03:11:03.219Z,31.58
2022-12-17T03:13:53.156Z,32.05
2022-12-17T03:16:43.472Z,27.23
2022-12-17T03:19:33.895Z,28.00
2022-12-17T03:22:26.611Z,33.80
2022-12-17T03:25:16.194Z,29.75
2022-12-17T03:28:05.869Z,33.03
2022-12-17T03:30:55.881Z,36.20
2022-12-17T03:33:46.270Z,28.90
2022-12-17T03:36:36.693Z,27.08
2022-12-17T03:39:27.776Z,25.45
2022-12-17T03:42:17.385Z,29.77
2022-12-17T03:45:07.841Z,22.67
2022-12-17T03:47:57.778Z,26.00
2022-12-17T03:50:48.192Z,20.50
2022-12-17T03:53:38.892Z,20.20
2022-12-17T03:56:29.286Z,18.25
2022-12-17T03:59:19.323Z,22.80
2022-12-17T04:02:09.192Z,22.45
2022-12-17T04:04:59.353Z,20.75
2022-12-17T04:07:49.128Z,23.75
2022-12-17T04:10:39.421Z,21.38
2022-12-17T04:13:29.034Z,28.48
2022-12-17T04:16:18.904Z,31.63
2022-12-17T04:19:09.450Z,25.02
2022-12-17T04:21:59.545Z,21.52
2022-12-17T04:24:49.504Z,21.08
2022-12-17T04:27:39.796Z,21.27
2022-12-17T04:30:31.021Z,19.70
2022-12-17T04:33:20.997Z,21.75
2022-12-17T04:36:10.752Z,18.95
2022-12-17T04:39:00.875Z,19.98
2022-12-17T04:41:50.865Z,18.83
2022-12-17T04:44:40.456Z,21.58
2022-12-17T04:47:30.472Z,20.95
2022-12-17T04:50:20.357Z,20.58
2022-12-17T04:53:10.226Z,21.70
2022-12-17T04:55:59.883Z,20.05
2022-12-17T04:58:50.205Z,20.50
2022-12-17T05:01:40.790Z,21.40
2022-12-17T05:04:30.953Z,29.05
2022-12-17T05:07:20.973Z,22.00
2022-12-17T05:10:10.736Z,18.17
2022-12-17T05:13:00.762Z,22.80
2022-12-17T05:15:53.251Z,39.90
2022-12-17T05:18:43.926Z,16.92
2022-12-17T05:21:34.285Z,17.05
2022-12-17T05:24:24.332Z,14.45
2022-12-17T05:27:14.643Z,15.80
2022-12-17T05:30:04.798Z,17.40
2022-12-17T05:32:54.927Z,25.98
2022-12-17T05:35:44.931Z,15.45
2022-12-17T05:38:34.902Z,15.95
2022-12-17T05:41:24.541Z,16.35
2022-12-17T05:44:14.466Z,19.02
2022-12-17T05:47:04.151Z,17.35
2022-12-17T05:49:54.414Z,17.55
2022-12-17T05:52:47.130Z,15.98
2022-12-17T05:55:37.019Z,19.45
2022-12-17T05:58:32.366Z,15.63
2022-12-17T06:01:25.627Z,16.70
2022-12-17T06:04:15.915Z,16.48
2022-12-17T06:07:05.896Z,18.48
2022-12-17T06:09:56.218Z,20.30
2022-12-17T06:12:46.257Z,16.52
2022-12-17T06:15:36.255Z,16.67
2022-12-17T06:18:26.030Z,16.95
2022-12-17T06:21:15.686Z,21.20
2022-12-17T06:24:06.042Z,19.05
2022-12-17T06:26:56.300Z,21.10
2022-12-17T06:29:46.476Z,16.95
2022-12-17T06:32:36.811Z,15.50
2022-12-17T06:35:26.823Z,19.55
2022-12-17T06:38:24.839Z,16.13
2022-12-17T06:41:14.959Z,15.13
2022-12-17T06:44:04.518Z,14.57
2022-12-17T06:46:54.917Z,18.40
2022-12-17T06:49:45.648Z,18.02
2022-12-17T06:52:35.976Z,16.75
2022-12-17T06:55:26.515Z,16.20
2022-12-17T06:58:22.856Z,26.90
2022-12-17T07:01:15.995Z,32.28
2022-12-17T07:04:05.636Z,17.25
2022-12-17T07:06:58.703Z,17.02
2022-12-17T07:09:48.624Z,29.45
2022-12-17T07:12:38.307Z,15.77
2022-12-17T07:15:28.983Z,23.42
2022-12-17T07:18:21.205Z,14.32
2022-12-17T07:21:15.287Z,18.48
2022-12-17T07:24:05.137Z,16.25
2022-12-17T07:26:55.060Z,15.82
2022-12-17T07:29:44.993Z,17.95
2022-12-17T07:32:34.897Z,17.40
2022-12-17T07:35:24.986Z,20.13
2022-12-17T07:38:25.817Z,16.13
2022-12-17T07:41:15.863Z,16.63
2022-12-17T07:44:05.728Z,17.17
2022-12-17T07:46:56.061Z,21.65
2022-12-17T07:49:46.207Z,14.77
2022-12-17T07:52:36.362Z,16.88
2022-12-17T07:55:26.798Z,21.30
2022-12-17T07:58:28.587Z,17.40
2022-12-17T08:01:22.231Z,15.68
2022-12-17T08:04:11.976Z,18.75
2022-12-17T08:07:08.719Z,22.33
2022-12-17T08:10:00.843Z,21.55
2022-12-17T08:12:50.853Z,20.45
2022-12-17T08:15:41.148Z,18.20
2022-12-17T08:18:31.160Z,14.38
2022-12-17T08:21:20.945Z,14.07
2022-12-17T08:24:10.730Z,16.15
2022-12-17T08:27:00.333Z,19.35
2022-12-17T08:29:49.949Z,16.70
2022-12-17T08:32:40.371Z,21.25
2022-12-17T08:35:30.665Z,18.63
2022-12-17T08:38:27.748Z,19.25
2022-12-17T08:41:21.133Z,18.15
2022-12-17T08:44:11.058Z,17.23
2022-12-17T08:47:01.802Z,19.15
2022-12-17T08:49:54.865Z,20.77
2022-12-17T08:52:44.513Z,19.88
2022-12-17T08:55:34.515Z,17.92
2022-12-17T08:58:24.552Z,19.30
2022-12-17T09:01:14.662Z,17.33
2022-12-17T09:04:04.833Z,22.27
2022-12-17T09:06:54.928Z,19.65
2022-12-17T09:09:44.452Z,16.17
2022-12-17T09:12:34.206Z,17.73
2022-12-17T09:15:24.615Z,18.98
2022-12-17T09:18:14.931Z,25.23
2022-12-17T09:21:05.874Z,23.20
2022-12-17T09:23:56.966Z,19.60
2022-12-17T09:26:47.044Z,17.38
2022-12-17T09:29:37.506Z,19.50
2022-12-17T09:32:27.671Z,18.88
2022-12-17T09:35:17.944Z,21.58
2022-12-17T09:38:16.912Z,25.70
2022-12-17T09:41:10.560Z,23.67
2022-12-17T09:44:17.022Z,20.30
2022-12-17T09:47:33.884Z,18.65
2022-12-17T09:50:27.140Z,17.52
2022-12-17T09:53:17.476Z,18.98
2022-12-17T09:56:15.414Z,20.63
2022-12-17T09:59:05.776Z,23.20
2022-12-17T10:01:57.047Z,22.92
2022-12-17T10:05:01.201Z,19.70
2022-12-17T10:07:57.443Z,25.38
2022-12-17T10:10:51.540Z,19.50
2022-12-17T10:13:45.423Z,33.63
2022-12-17T10:17:14.255Z,19.50
2022-12-17T10:20:05.551Z,19.23
2022-12-17T10:23:05.777Z,22.73
2022-12-17T10:25:56.862Z,35.42
2022-12-17T10:28:47.448Z,34.05
2022-12-17T10:31:44.771Z,34.60
2022-12-17T10:34:39.154Z,32.42
2022-12-17T10:37:39.448Z,27.17
2022-12-17T10:40:47.448Z,26.13
2022-12-17T10:44:00.381Z,39.63
2022-12-17T10:46:53.299Z,137.32
2022-12-17T10:49:46.483Z,28.50
2022-12-17T10:52:55.837Z,24.05
2022-12-17T10:55:51.321Z,21.08
2022-12-17T10:58:47.405Z,19.42
2022-12-17T11:01:48.384Z,19.25
2022-12-17T11:04:52.977Z,20.02
2022-12-17T11:07:59.225Z,21.60
2022-12-17T11:10:52.775Z,19.38
2022-12-17T11:14:06.628Z,21.63
2022-12-17T11:17:05.020Z,20.05
2022-12-17T11:20:22.314Z,22.35
2022-12-17T11:23:20.130Z,19.55
2022-12-17T11:26:34.249Z,18.08
2022-12-17T11:29:24.020Z,21.10
2022-12-17T11:32:53.220Z,19.67
2022-12-17T11:36:31.386Z,20.88
2022-12-17T11:39:54.657Z,17.67
2022-12-17T11:42:55.712Z,17.52
2022-12-17T11:46:10.558Z,22.80
2022-12-17T11:49:23.133Z,32.47
2022-12-17T11:52:25.841Z,33.70
2022-12-17T11:55:49.793Z,21.08
2022-12-17T11:58:58.540Z,17.25
2022-12-17T12:02:18.389Z,14.93
2022-12-17T12:05:49.772Z,15.85
2022-12-17T12:09:21.255Z,14.73
2022-12-17T12:12:46.309Z,15.82
2022-12-17T12:16:08.889Z,19.95
2022-12-17T12:19:37.965Z,15.57
2022-12-17T12:23:07.266Z,15.50
2022-12-17T12:26:13.866Z,20.05
2022-12-17T12:29:42.599Z,19.60
2022-12-17T12:33:10.253Z,16.95
2022-12-17T12:36:01.001Z,19.30
2022-12-17T12:39:02.014Z,17.98
2022-12-17T12:42:24.669Z,23.30
2022-12-17T12:45:41.672Z,17.35
2022-12-17T12:49:02.268Z,20.50
2022-12-17T12:51:57.042Z,21.63
2022-12-17T12:54:54.625Z,18.73
2022-12-17T12:57:50.640Z,24.65
2022-12-17T13:00:58.085Z,17.05
2022-12-17T13:03:52.011Z,22.73
2022-12-17T13:06:55.899Z,19.65
2022-12-17T13:09:52.223Z,18.02
2022-12-17T13:12:35.168Z,21.45
2022-12-17T13:15:32.769Z,20.48
2022-12-17T13:18:37.718Z,20.00
2022-12-17T13:21:29.021Z,21.88
2022-12-17T13:24:00.395Z,26.73
2022-12-17T13:26:46.512Z,21.92
2022-12-17T13:29:38.663Z,26.15
2022-12-17T13:32:24.357Z,20.60
2022-12-17T13:35:18.134Z,23.90
2022-12-17T13:38:04.054Z,21.38
2022-12-17T13:41:13.661Z,26.75
2022-12-17T13:43:59.387Z,29.48
2022-12-17T13:46:36.966Z,23.77
2022-12-17T13:49:08.679Z,28.75
2022-12-17T13:51:39.622Z,20.60
2022-12-17T13:54:19.635Z,21.95
2022-12-17T13:56:49.979Z,21.05
2022-12-17T13:59:26.782Z,24.17
2022-12-17T14:01:57.209Z,23.33
2022-12-17T14:04:31.049Z,22.15
2022-12-17T14:07:06.559Z,26.30
2022-12-17T14:09:42.315Z,20.60
2022-12-17T14:12:24.117Z,22.05
2022-12-17T14:14:59.877Z,22.15
2022-12-17T14:17:37.905Z,23.13
2022-12-17T14:20:27.048Z,21.42
2022-12-17T14:23:03.311Z,24.73
2022-12-17T14:25:39.543Z,21.38
2022-12-17T14:28:44.824Z,20.48
2022-12-17T14:31:32.478Z,28.45
2022-12-17T14:34:09.657Z,22.30
2022-12-17T14:36:43.731Z,19.30
2022-12-17T14:39:27.915Z,21.73
2022-12-17T14:42:28.072Z,22.35
2022-12-17T14:45:02.522Z,24.70
2022-12-17T14:47:35.982Z,21.13
2022-12-17T14:50:28.317Z,22.20
2022-12-17T14:53:01.758Z,23.15
2022-12-17T14:55:58.942Z,26.08
2022-12-17T14:58:29.891Z,24.77
2022-12-17T15:01:20.726Z,23.30
2022-12-17T15:03:51.685Z,23.58
2022-12-17T15:06:24.249Z,26.23
2022-12-17T15:08:55.671Z,22.17
2022-12-17T15:11:27.042Z,21.75
2022-12-17T15:13:57.181Z,19.95
2022-12-17T15:16:28.734Z,23.02
2022-12-17T15:18:59.393Z,23.27
2022-12-17T15:21:30.501Z,22.23
2022-12-17T15:24:01.443Z,21.77
2022-12-17T15:26:32.325Z,24.10
2022-12-17T15:29:04.070Z,21.58
2022-12-17T15:31:35.821Z,20.90
2022-12-17T15:34:07.835Z,21.00
2022-12-17T15:36:38.481Z,20.73
2022-12-17T15:39:10.758Z,24.60
2022-12-17T15:42:07.618Z,24.65
2022-12-17T15:44:38.394Z,21.48
2022-12-17T15:47:09.137Z,21.85
2022-12-17T15:49:40.099Z,22.33
2022-12-17T15:52:11.075Z,19.23
2022-12-17T15:54:45.715Z,20.55
2022-12-17T15:57:18.807Z,28.75
2022-12-17T15:59:50.318Z,34.33
2022-12-17T16:02:21.234Z,22.48
2022-12-17T16:04:52.326Z,23.13
2022-12-17T16:07:23.853Z,34.08
2022-12-17T16:09:54.727Z,29.75
2022-12-17T16:12:26.006Z,48.70
2022-12-17T16:14:57.303Z,22.38
2022-12-17T16:17:28.147Z,22.92
2022-12-17T16:19:59.085Z,20.98
2022-12-17T16:22:30.817Z,20.58
2022-12-17T16:25:02.577Z,21.05
2022-12-17T16:27:33.962Z,23.88
2022-12-17T16:30:05.339Z,22.30
2022-12-17T16:32:36.741Z,23.85
2022-12-17T16:35:08.753Z,25.88
2022-12-17T16:37:39.443Z,24.33
2022-12-17T16:40:11.543Z,25.05
2022-12-17T16:42:42.028Z,24.40
2022-12-17T16:45:13.151Z,23.50
2022-12-17T16:47:43.750Z,25.98
2022-12-17T16:50:14.338Z,133.02
2022-12-17T16:52:44.995Z,34.67
2022-12-17T16:55:18.908Z,30.42
2022-12-17T16:57:49.597Z,31.67
2022-12-17T17:00:20.768Z,29.95
2022-12-17T17:02:54.698Z,27.15
2022-12-17T17:05:25.433Z,30.42
2022-12-17T17:07:55.633Z,28.33
2022-12-17T17:10:26.450Z,31.38
2022-12-17T17:12:58.518Z,25.80
2022-12-17T17:15:29.518Z,24.10
2022-12-17T17:18:01.424Z,28.15
2022-12-17T17:20:35.567Z,26.08
2022-12-17T17:23:05.833Z,29.23
2022-12-17T17:25:57.658Z,32.30
2022-12-17T17:28:29.269Z,26.83
2022-12-17T17:31:08.649Z,51.08
2022-12-17T17:33:42.030Z,140.63
2022-12-17T17:36:15.528Z,31.20
2022-12-17T17:38:45.957Z,38.58
2022-12-17T17:41:20.635Z,36.63
2022-12-17T17:44:14.368Z,49.55
2022-12-17T17:46:44.496Z,36.00
2022-12-17T17:49:18.063Z,41.05
2022-12-17T17:52:21.249Z,35.22
2022-12-17T17:54:42.312Z,41.88
2022-12-17T17:57:12.726Z,35.20
2022-12-17T17:59:49.602Z,35.53
2022-12-17T18:02:19.667Z,40.60
2022-12-17T18:04:54.184Z,42.35
2022-12-17T18:07:26.029Z,36.25
2022-12-17T18:09:58.213Z,39.70
2022-12-17T18:12:49.379Z,38.70
2022-12-17T18:15:19.876Z,40.90
2022-12-17T18:17:53.981Z,37.20
2022-12-17T18:20:24.489Z,40.75
2022-12-17T18:22:55.461Z,37.70
2022-12-17T18:25:25.892Z,39.10
2022-12-17T18:27:56.691Z,37.55
2022-12-17T18:30:27.218Z,42.53
2022-12-17T18:32:57.682Z,42.28
2022-12-17T18:35:28.951Z,42.88
2022-12-17T18:37:59.604Z,50.47
2022-12-17T18:40:33.288Z,46.70
2022-12-17T18:43:23.591Z,47.50
2022-12-17T18:45:54.948Z,49.03
2022-12-17T18:48:25.370Z,43.78
2022-12-17T18:50:58.646Z,42.13
2022-12-17T18:53:33.389Z,47.80
2022-12-17T18:56:22.845Z,47.28
2022-12-17T18:59:02.697Z,48.63
2022-12-17T19:01:38.163Z,48.35
2022-12-17T19:04:10.924Z,52.70
2022-12-17T19:06:42.174Z,50.03
2022-12-17T19:09:22.548Z,47.47
2022-12-17T19:11:54.170Z,54.50
2022-12-17T19:14:26.625Z,46.78
2022-12-17T19:17:02.066Z,48.33
2022-12-17T19:19:39.470Z,51.33
2022-12-17T19:22:10.001Z,48.55
2022-12-17T19:24:40.778Z,50.40
2022-12-17T19:27:11.501Z,49.40
2022-12-17T19:29:46.218Z,49.22
2022-12-17T19:32:19.348Z,48.03
2022-12-17T19:34:50.087Z,47.70
2022-12-17T19:37:20.391Z,55.05
2022-12-17T19:39:50.724Z,50.40
2022-12-17T19:42:30.744Z,49.05
2022-12-17T19:45:07.316Z,47.78
2022-12-17T19:47:37.397Z,46.88
2022-12-17T19:50:07.841Z,51.25
2022-12-17T19:52:40.962Z,55.03
2022-12-17T19:55:14.285Z,52.88
2022-12-17T19:57:45.054Z,53.53
2022-12-17T20:00:16.860Z,47.40
2022-12-17T20:02:48.169Z,47.72
2022-12-17T20:05:19.425Z,54.78
2022-12-17T20:07:50.163Z,51.00
2022-12-17T20:10:21.176Z,54.22
2022-12-17T20:12:51.655Z,53.33
2022-12-17T20:15:22.696Z,58.92
2022-12-17T20:17:52.799Z,50.53
2022-12-17T20:20:23.614Z,59.33
2022-12-17T20:22:54.339Z,51.53
2022-12-17T20:25:24.448Z,57.45
2022-12-17T20:27:54.581Z,48.05
2022-12-17T20:30:26.723Z,49.85
2022-12-17T20:32:57.474Z,52.58
2022-12-17T20:35:31.033Z,46.30
2022-12-17T20:38:01.034Z,44.03
2022-12-17T20:40:31.789Z,48.63
2022-12-17T20:43:01.841Z,49.63
2022-12-17T20:45:32.286Z,54.97
2022-12-17T20:48:03.135Z,52.05
2022-12-17T20:50:33.259Z,58.65
2022-12-17T20:53:03.973Z,51.60
2022-12-17T20:55:34.021Z,48.03
2022-12-17T20:58:04.205Z,51.25
2022-12-17T21:00:35.858Z,53.72
2022-12-17T21:03:06.562Z,47.60
2022-12-17T21:05:38.285Z,54.70
2022-12-17T21:08:08.374Z,51.15
2022-12-17T21:10:38.409Z,48.60
2022-12-17T21:13:28.355Z,54.90
2022-12-17T21:16:04.135Z,60.03
2022-12-17T21:18:36.029Z,45.88
2022-12-17T21:21:10.749Z,47.38
2022-12-17T21:23:42.653Z,57.92
2022-12-17T21:26:20.676Z,57.17
2022-12-17T21:28:54.264Z,53.00
2022-12-17T21:31:39.450Z,51.92
2022-12-17T21:34:13.207Z,54.13
2022-12-17T21:36:43.827Z,49.13
2022-12-17T21:39:16.492Z,57.85
2022-12-17T21:42:10.804Z,51.67
2022-12-17T21:44:40.834Z,57.60
2022-12-17T21:47:11.075Z,54.33
2022-12-17T21:49:40.919Z,52.22
2022-12-17T21:52:11.251Z,55.00
2022-12-17T21:54:41.436Z,51.55
2022-12-17T21:57:11.819Z,49.90
2022-12-17T21:59:43.695Z,50.30
2022-12-17T22:02:14.256Z,46.88
2022-12-17T22:04:44.915Z,49.80
2022-12-17T22:07:24.290Z,56.25
2022-12-17T22:10:17.757Z,58.45
2022-12-17T22:13:06.574Z,52.28
2022-12-17T22:15:39.515Z,55.33
2022-12-17T22:18:12.159Z,52.00
2022-12-17T22:20:42.226Z,51.78
2022-12-17T22:23:12.286Z,52.55
2022-12-17T22:25:43.992Z,59.17
2022-12-17T22:28:14.216Z,49.22
2022-12-17T22:31:04.677Z,55.28
2022-12-17T22:33:58.611Z,48.72
2022-12-17T22:39:18.473Z,57.78
2022-12-17T22:44:29.054Z,52.90
2022-12-17T22:44:35.542Z,53.70
2022-12-17T22:45:24.936Z,53.72
2022-12-17T22:47:56.369Z,53.03
2022-12-17T22:50:34.531Z,52.65
2022-12-17T22:53:15.115Z,62.40
2022-12-17T22:55:46.029Z,55.22
2022-12-17T22:58:16.676Z,58.13
2022-12-17T23:00:47.080Z,47.30
2022-12-17T23:03:18.400Z,56.92
2022-12-17T23:05:49.284Z,55.90
2022-12-17T23:08:19.224Z,56.42
2022-12-17T23:10:49.309Z,60.70
2022-12-17T23:13:19.564Z,53.88
2022-12-17T23:15:49.681Z,58.85
2022-12-17T23:18:20.029Z,55.90
2022-12-17T23:20:50.441Z,62.20
2022-12-17T23:23:21.030Z,62.60
2022-12-17T23:25:51.394Z,65.22
2022-12-17T23:28:21.790Z,61.67
2022-12-17T23:30:52.240Z,62.78
2022-12-17T23:33:22.974Z,56.75
2022-12-17T23:35:53.596Z,63.97
2022-12-17T23:38:24.085Z,59.28
2022-12-17T23:40:54.331Z,60.45
2022-12-17T23:43:24.425Z,56.75
2022-12-17T23:45:54.673Z,65.78
2022-12-17T23:48:25.060Z,58.13
2022-12-17T23:50:55.282Z,60.13
2022-12-17T23:53:25.871Z,68.35
2022-12-17T23:55:56.538Z,66.95
2022-12-17T23:58:27.307Z,55.60
